Time;durP1;ratioP1;P1;durP2;ratioP2;P2;SDS_P1;SDS_P2;PMS_P1;PMS_P2;Temp;Humidity;BMP_temperature;BMP_pressure;BME280_temperature;BME280_humidity;BME280_pressure;Samples;Min_cycle;Max_cycle;Signal;HPM_P1;HPM_P2
2024/01/07 00:00:07;;;;;;;;;;;-0.50;80.30;;;;;;5049736;28;19905;-90
2024/01/07 00:02:32;;;;;;;;;;;-0.50;80.20;;;;;;5033089;28;19908;-87
2024/01/07 00:04:58;;;;;;;;;;;-0.50;80.20;;;;;;5033331;28;19905;-90
2024/01/07 00:07:24;;;;;;;;;;;-0.50;80.10;;;;;;5033046;28;19905;-90
2024/01/07 00:09:49;;;;;;;;;;;-0.50;79.80;;;;;;5034174;28;20309;-89
2024/01/07 00:12:15;;;;;;;;;;;-0.50;79.60;;;;;;5032727;28;20288;-88
2024/01/07 00:14:40;;;;;;;;;;;-0.50;80.20;;;;;;5033475;28;19916;-89
2024/01/07 00:17:06;;;;;;;;;;;-0.50;79.70;;;;;;5033216;28;19905;-90
2024/01/07 00:19:31;;;;;;;;;;;-0.50;80.00;;;;;;5034302;28;19913;-88
2024/01/07 00:21:57;;;;;;;;;;;-0.50;80.00;;;;;;5032943;28;19913;-88
2024/01/07 00:24:25;;;;;;;;;;;-0.50;79.70;;;;;;5034262;28;20380;-92
2024/01/07 00:26:51;;;;;;;;;;;-0.50;79.00;;;;;;5032988;28;19909;-90
2024/01/07 00:29:16;;;;;;;;;;;-0.60;79.70;;;;;;5032827;28;19952;-89
2024/01/07 00:31:42;;;;;;;;;;;-0.60;79.90;;;;;;5034177;28;19913;-87
2024/01/07 00:34:07;;;;;;;;;;;-0.60;80.20;;;;;;5035534;28;19906;-87
2024/01/07 00:36:32;;;;;;;;;;;-0.60;79.90;;;;;;5034716;28;19964;-90
2024/01/07 00:38:58;;;;;;;;;;;-0.60;80.20;;;;;;5035037;28;19904;-89
2024/01/07 00:41:24;;;;;;;;;;;-0.60;79.80;;;;;;5035364;28;19912;-88
2024/01/07 00:43:49;;;;;;;;;;;-0.60;80.00;;;;;;5036181;28;19912;-88
2024/01/07 00:46:15;;;;;;;;;;;-0.70;80.10;;;;;;5034408;28;20297;-88
2024/01/07 00:48:40;;;;;;;;;;;-0.60;79.70;;;;;;5034576;28;19905;-87
2024/01/07 00:51:06;;;;;;;;;;;-0.60;80.00;;;;;;5036732;28;19913;-88
2024/01/07 00:53:31;;;;;;;;;;;-0.70;79.40;;;;;;5038269;28;19909;-89
2024/01/07 00:55:57;;;;;;;;;;;-0.70;79.60;;;;;;5038489;28;19912;-87
2024/01/07 00:58:22;;;;;;;;;;;-0.80;80.00;;;;;;5038749;28;19911;-89
2024/01/07 01:00:48;;;;;;;;;;;-0.80;80.00;;;;;;5039038;28;19911;-89
2024/01/07 01:03:13;;;;;;;;;;;-0.80;79.90;;;;;;5037872;28;19949;-88
2024/01/07 01:05:39;;;;;;;;;;;-0.80;79.90;;;;;;5037686;28;20145;-88
2024/01/07 01:08:04;;;;;;;;;;;-0.80;79.80;;;;;;5039066;28;19912;-88
2024/01/07 01:10:30;;;;;;;;;;;-0.80;79.30;;;;;;5039578;28;19959;-88
2024/01/07 01:12:55;;;;;;;;;;;-0.90;79.70;;;;;;5038165;28;19912;-88
2024/01/07 01:15:21;;;;;;;;;;;-0.90;79.90;;;;;;5054922;28;20270;-89
2024/01/07 01:17:46;;;;;;;;;;;-0.90;80.00;;;;;;5039024;28;19920;-89
2024/01/07 01:20:12;;;;;;;;;;;-1.00;80.20;;;;;;5038939;28;19917;-89
2024/01/07 01:22:37;;;;;;;;;;;-1.00;80.20;;;;;;5040554;28;19905;-89
2024/01/07 01:25:04;;;;;;;;;;;-1.00;80.10;;;;;;5039300;28;19986;-88
2024/01/07 01:27:29;;;;;;;;;;;-0.90;80.10;;;;;;5039218;28;20304;-88
2024/01/07 01:29:54;;;;;;;;;;;-1.00;80.00;;;;;;5037910;28;19949;-88
2024/01/07 01:32:20;;;;;;;;;;;-1.00;80.10;;;;;;5038067;28;20362;-88
2024/01/07 01:34:45;;;;;;;;;;;-1.10;80.10;;;;;;5055941;28;19905;-89
2024/01/07 01:37:11;;;;;;;;;;;-1.10;80.10;;;;;;5056859;28;19909;-90
2024/01/07 01:39:38;;;;;;;;;;;-1.10;80.20;;;;;;5056644;28;19909;-87
2024/01/07 01:42:04;;;;;;;;;;;-1.10;80.20;;;;;;5039954;28;19905;-87
2024/01/07 01:44:31;;;;;;;;;;;-1.00;80.20;;;;;;5039734;28;19905;-88
2024/01/07 01:46:57;;;;;;;;;;;-1.10;80.50;;;;;;5056407;28;19940;-88
2024/01/07 01:49:23;;;;;;;;;;;-1.00;80.50;;;;;;5056228;28;20369;-88
2024/01/07 01:51:49;;;;;;;;;;;-1.00;80.60;;;;;;5038256;28;19909;-88
2024/01/07 01:54:15;;;;;;;;;;;-1.00;80.20;;;;;;5038796;28;19912;-88
2024/01/07 01:56:40;;;;;;;;;;;-0.90;80.20;;;;;;5035870;28;19904;-87
2024/01/07 01:59:06;;;;;;;;;;;-0.90;80.10;;;;;;5035985;28;19905;-88
2024/01/07 02:01:32;;;;;;;;;;;-0.90;79.80;;;;;;5052734;28;19916;-87
2024/01/07 02:03:57;;;;;;;;;;;-0.90;80.00;;;;;;5035888;28;19931;-89
2024/01/07 02:06:23;;;;;;;;;;;-0.90;80.30;;;;;;5035424;28;19912;-89
2024/01/07 02:08:49;;;;;;;;;;;-0.90;80.20;;;;;;5036197;28;20373;-89
2024/01/07 02:11:18;;;;;;;;;;;-0.90;79.80;;;;;;5035356;28;19915;-88
2024/01/07 02:13:44;;;;;;;;;;;-0.80;79.60;;;;;;5035254;28;19905;-88
2024/01/07 02:16:10;;;;;;;;;;;-0.80;79.60;;;;;;5035435;28;19928;-88
2024/01/07 02:18:36;;;;;;;;;;;-0.70;79.50;;;;;;5035828;28;20004;-88
2024/01/07 02:21:02;;;;;;;;;;;-0.70;79.80;;;;;;5035099;28;20340;-89
2024/01/07 02:23:27;;;;;;;;;;;-0.60;79.60;;;;;;5035069;28;19905;-90
2024/01/07 02:25:52;;;;;;;;;;;-0.60;79.40;;;;;;5037004;28;19917;-88
2024/01/07 02:28:18;;;;;;;;;;;-0.60;79.60;;;;;;5035539;28;20000;-86
2024/01/07 02:30:43;;;;;;;;;;;-0.60;79.80;;;;;;5035618;28;19916;-89
2024/01/07 02:33:09;;;;;;;;;;;-0.60;79.30;;;;;;5036381;28;19905;-88
2024/01/07 02:35:34;;;;;;;;;;;-0.50;78.90;;;;;;5051781;28;19912;-88
2024/01/07 02:38:00;;;;;;;;;;;-0.50;79.40;;;;;;5035464;28;19950;-88
2024/01/07 02:40:25;;;;;;;;;;;-0.40;78.80;;;;;;5034868;28;19905;-88
2024/01/07 02:42:51;;;;;;;;;;;-0.40;79.10;;;;;;5051624;28;19905;-86
2024/01/07 02:45:16;;;;;;;;;;;-0.30;78.40;;;;;;5037133;28;19904;-87
2024/01/07 02:47:41;;;;;;;;;;;-0.20;78.40;;;;;;5051448;28;19948;-91
2024/01/07 02:50:07;;;;;;;;;;;-0.30;79.00;;;;;;5035228;28;19909;-88
2024/01/07 02:52:32;;;;;;;;;;;-0.30;78.90;;;;;;5036216;28;19905;-88
2024/01/07 02:54:58;;;;;;;;;;;-0.30;79.10;;;;;;5036879;28;19911;-89
2024/01/07 02:57:24;;;;;;;;;;;-0.30;79.20;;;;;;5051173;28;19951;-88
2024/01/07 02:59:49;;;;;;;;;;;-0.20;78.50;;;;;;5034302;28;19905;-88
2024/01/07 03:02:15;;;;;;;;;;;-0.30;78.80;;;;;;5051057;28;19912;-87
2024/01/07 03:04:40;;;;;;;;;;;-0.30;79.00;;;;;;5050646;28;19995;-88
2024/01/07 03:07:06;;;;;;;;;;;-0.20;78.60;;;;;;5034083;28;19906;-87
2024/01/07 03:09:31;;;;;;;;;;;-0.20;78.60;;;;;;5035038;28;19951;-86
2024/01/07 03:11:56;;;;;;;;;;;-0.20;78.60;;;;;;5033787;28;19909;-88
2024/01/07 03:14:23;;;;;;;;;;;-0.30;78.90;;;;;;5033135;28;20356;-89
2024/01/07 03:16:48;;;;;;;;;;;-0.30;79.10;;;;;;5033936;28;19912;-86
2024/01/07 03:19:14;;;;;;;;;;;-0.30;79.20;;;;;;5050368;28;19913;-86
2024/01/07 03:21:39;;;;;;;;;;;-0.30;78.90;;;;;;5034936;28;19952;-88
2024/01/07 03:24:05;;;;;;;;;;;-0.20;78.90;;;;;;5034123;28;19905;-88
2024/01/07 03:26:33;;;;;;;;;;;-0.20;78.80;;;;;;5033539;28;19940;-87
2024/01/07 03:29:02;;;;;;;;;;;-0.20;79.00;;;;;;5034794;28;19920;-89
2024/01/07 03:31:28;;;;;;;;;;;-0.20;78.70;;;;;;5033634;28;20384;-87
2024/01/07 03:33:54;;;;;;;;;;;-0.10;79.00;;;;;;5033357;28;19905;-86
2024/01/07 03:36:19;;;;;;;;;;;-0.10;79.30;;;;;;5034650;28;19905;-86
2024/01/07 03:38:45;;;;;;;18.40;17.20;;;-0.20;79.30;;;;;;5032997;28;19905;-88
2024/01/07 03:41:17;;;;;;;17.57;16.43;;;-0.20;79.20;;;;;;5032823;28;20342;-88
2024/01/07 03:43:43;;;;;;;17.70;16.50;;;-0.20;79.40;;;;;;5034159;28;20158;-87
2024/01/07 03:46:08;;;;;;;16.70;15.60;;;-0.20;79.60;;;;;;5032952;28;20177;-89
2024/01/07 03:48:34;;;;;;;16.87;15.67;;;-0.20;79.90;;;;;;5033932;28;20179;-88
2024/01/07 03:50:59;;;;;;;17.73;16.20;;;-0.20;80.20;;;;;;5033085;28;20199;-87
2024/01/07 03:53:25;;;;;;;35.57;33.17;;;-0.30;80.10;;;;;;5032736;28;20212;-87
2024/01/07 03:55:50;;;;;;;34.50;32.30;;;-0.20;79.90;;;;;;5032449;28;20210;-87
2024/01/07 03:58:16;;;;;;;32.83;30.63;;;-0.20;80.10;;;;;;5034069;28;20594;-87
2024/01/07 04:00:42;;;;;;;34.13;32.00;;;-0.20;80.00;;;;;;5032247;28;20238;-89
2024/01/07 04:03:07;;;;;;;33.90;31.80;;;-0.20;80.10;;;;;;5032471;28;20182;-88
2024/01/07 04:05:33;;;;;;;36.57;34.07;;;-0.20;79.80;;;;;;5033464;28;20182;-90
2024/01/07 04:08:02;;;;;;;36.53;34.03;;;-0.20;80.30;;;;;;5033085;28;20242;-88
2024/01/07 04:10:28;;;;;;;17.63;16.33;;;-0.20;80.50;;;;;;5033598;28;20746;-88
2024/01/07 04:12:53;;;;;;;17.57;16.23;;;-0.30;80.40;;;;;;5032567;28;20210;-87
2024/01/07 04:15:20;;;;;;;33.73;31.60;;;-0.20;80.30;;;;;;5033886;28;20101;-88
2024/01/07 04:17:46;;;;;;;34.83;32.53;;;-0.20;80.20;;;;;;5032292;28;20182;-88
2024/01/07 04:20:14;;;;;;;38.87;35.83;;;-0.20;80.30;;;;;;5033187;28;20268;-88
2024/01/07 04:22:40;;;;;;;16.60;15.50;;;-0.20;80.50;;;;;;5031937;28;20261;-86
2024/01/07 04:25:08;;;;;;;16.70;15.43;;;-0.20;80.40;;;;;;5033107;28;20705;-88
2024/01/07 04:27:35;;;;;;;35.17;32.97;;;-0.20;80.20;;;;;;5035836;28;20254;-88
2024/01/07 04:30:01;;;;;;;35.93;33.53;;;-0.20;80.20;;;;;;5037093;28;20739;-88
2024/01/07 04:32:26;;;;;;;31.17;28.97;;;-0.20;80.50;;;;;;5037249;28;20203;-89
2024/01/07 04:34:52;;;;;;;17.27;16.10;;;-0.20;80.30;;;;;;5035623;28;20190;-88
2024/01/07 04:37:18;;;;;;;16.87;15.77;;;-0.20;80.60;;;;;;5036923;28;20175;-89
2024/01/07 04:39:43;;;;;;;17.23;15.83;;;-0.20;80.60;;;;;;5035534;28;20219;-89
2024/01/07 04:42:09;;;;;;;31.87;29.87;;;-0.20;80.60;;;;;;5036501;28;20187;-88
2024/01/07 04:44:34;;;;;;;33.90;31.87;;;-0.20;80.70;;;;;;5036251;28;20276;-89
2024/01/07 04:47:00;;;;;;;27.07;25.17;;;-0.20;81.40;;;;;;5037641;28;20174;-89
2024/01/07 04:49:26;;;;;;;16.77;15.43;;;-0.30;81.50;;;;;;5035776;28;20206;-88
2024/01/07 04:51:51;;;;;;;16.00;14.90;;;-0.30;81.40;;;;;;5035606;28;20236;-88
2024/01/07 04:54:18;;;;;;;33.33;30.80;;;-0.20;81.50;;;;;;5035960;28;20169;-88
2024/01/07 04:56:44;;;;;;;34.93;32.73;;;-0.20;81.80;;;;;;5035505;28;20169;-88
2024/01/07 04:59:09;;;;;;;29.53;27.20;;;-0.30;82.10;;;;;;5035468;28;20170;-88
2024/01/07 05:01:35;;;;;;;16.27;15.13;;;-0.30;81.70;;;;;;5035977;28;20664;-88
2024/01/07 05:04:01;;;;;;;16.50;15.00;;;-0.30;81.70;;;;;;5036060;28;20202;-89
2024/01/07 05:06:27;;;;;;;31.73;29.83;;;-0.20;81.80;;;;;;5035857;28;20642;-88
2024/01/07 05:08:52;;;;;;;34.20;32.10;;;-0.20;82.00;;;;;;5036007;28;20185;-90
2024/01/07 05:11:18;;;;;;;30.70;28.23;;;-0.30;82.30;;;;;;5037145;28;20230;-90
2024/01/07 05:13:44;;;;;;;15.40;14.20;;;-0.30;82.30;;;;;;5036066;28;20627;-90
2024/01/07 05:16:17;;;;;;;15.63;14.53;;;-0.30;82.40;;;;;;5035758;28;20697;-88
2024/01/07 05:18:48;;;;;;;32.80;30.60;;;-0.30;82.20;;;;;;5035682;28;20281;-88
2024/01/07 05:21:22;;;;;;;33.13;30.80;;;-0.30;82.10;;;;;;5037013;28;20245;-88
2024/01/07 05:23:48;;;;;;;28.13;26.27;;;-0.30;82.10;;;;;;5035885;28;20645;-89
2024/01/07 05:26:13;;;;;;;15.57;14.47;;;-0.30;82.40;;;;;;5035603;28;20185;-89
2024/01/07 05:28:39;;;;;;;;;;;-0.30;82.50;;;;;;5036125;28;20189;-89
2024/01/07 05:31:04;;;;;;;30.90;28.80;;;-0.30;82.60;;;;;;5052363;28;20062;-90
2024/01/07 05:33:30;;;;;;;31.03;28.67;;;-0.20;82.80;;;;;;5035699;28;20178;-90
2024/01/07 05:35:55;;;;;;;29.17;26.87;;;-0.20;83.00;;;;;;5035391;28;20633;-89
2024/01/07 05:38:21;;;;;;;15.60;14.40;;;-0.30;83.10;;;;;;5036941;28;20175;-87
2024/01/07 05:40:46;;;;;;;15.80;14.80;;;-0.30;83.20;;;;;;5035495;28;20285;-87
2024/01/07 05:43:12;;;;;;;30.97;28.73;;;-0.20;83.30;;;;;;5035843;28;20179;-89
2024/01/07 05:45:37;;;;;;;33.93;31.47;;;-0.20;83.20;;;;;;5037384;28;20171;-91
2024/01/07 05:48:03;;;;;;;26.73;24.93;;;-0.20;83.20;;;;;;5035689;28;20177;-88
2024/01/07 05:50:28;;;;;;;15.83;14.53;;;-0.30;83.10;;;;;;5037326;28;20207;-90
2024/01/07 05:52:54;;;;;;;15.33;14.20;;;-0.20;83.20;;;;;;5036294;28;20178;-90
2024/01/07 05:55:19;;;;;;;29.73;27.40;;;-0.20;83.40;;;;;;5036023;28;20696;-89
2024/01/07 05:57:45;;;;;;;27.90;26.00;;;-0.20;83.40;;;;;;5037984;28;20167;-89
2024/01/07 06:00:12;;;;;;;22.93;21.37;;;-0.20;83.60;;;;;;5036517;28;20196;-88
2024/01/07 06:02:38;;;;;;;15.03;13.60;;;-0.20;83.60;;;;;;5036537;28;20205;-88
2024/01/07 06:05:04;;;;;;;15.50;14.33;;;-0.20;83.60;;;;;;5036182;28;20180;-89
2024/01/07 06:07:29;;;;;;;27.07;25.07;;;-0.30;83.60;;;;;;5038479;28;20179;-89
2024/01/07 06:09:55;;;;;;;26.57;24.73;;;-0.20;83.70;;;;;;5035014;28;20253;-88
2024/01/07 06:12:21;;;;;;;26.73;24.50;;;-0.20;83.80;;;;;;5034300;28;20236;-89
2024/01/07 06:14:46;;;;;;;15.27;14.10;;;-0.20;83.80;;;;;;5033800;28;20249;-89
2024/01/07 06:17:12;;;;;;;15.07;13.73;;;-0.20;84.00;;;;;;5034951;28;20195;-89
2024/01/07 06:19:37;;;;;;;14.67;13.37;;;-0.30;84.10;;;;;;5033552;28;20214;-89
2024/01/07 06:22:04;;;;;;;14.60;13.20;;;-0.20;84.30;;;;;;5033805;28;20582;-89
2024/01/07 06:24:29;;;;;;;13.67;12.67;;;-0.20;84.50;;;;;;5034769;28;20257;-89
2024/01/07 06:26:55;;;;;;;14.00;13.00;;;-0.30;84.50;;;;;;5034906;28;20181;-88
2024/01/07 06:29:20;;;;;;;14.20;13.10;;;-0.20;84.50;;;;;;5033543;28;20192;-89
2024/01/07 06:31:46;;;;;;;14.63;13.27;;;-0.20;84.50;;;;;;5033434;28;20206;-90
2024/01/07 06:34:14;;;;;;;14.10;13.00;;;-0.20;84.60;;;;;;5033500;28;20177;-89
2024/01/07 06:36:43;;;;;;;29.87;27.60;;;-0.20;84.70;;;;;;5034082;28;20173;-89
2024/01/07 06:39:09;;;;;;;30.33;28.13;;;-0.20;84.80;;;;;;5034395;28;20597;-89
2024/01/07 06:41:35;;;;;;;29.83;27.60;;;-0.30;85.00;;;;;;5033255;28;20187;-89
2024/01/07 06:44:02;;;;;;;32.13;29.80;;;-0.30;85.10;;;;;;5034049;28;20182;-90
2024/01/07 06:46:27;;;;;;;32.30;29.60;;;-0.30;85.30;;;;;;5033157;28;20213;-88
2024/01/07 06:48:53;;;;;;;31.70;29.43;;;-0.40;85.40;;;;;;5032252;28;20206;-90
2024/01/07 06:51:18;;;;;;;27.90;26.07;;;-0.40;85.60;;;;;;5032800;28;20215;-90
2024/01/07 06:53:44;;;;;;;27.47;25.43;;;-0.50;85.70;;;;;;5034077;28;20195;-89
2024/01/07 06:56:09;;;;;;;14.67;13.17;;;-0.60;85.90;;;;;;5034039;28;20251;-89
2024/01/07 06:58:35;;;;;;;14.87;13.17;;;-0.80;86.30;;;;;;5033045;28;20173;-89
2024/01/07 07:01:00;;;;;;;25.87;24.07;;;-0.90;86.50;;;;;;5033058;28;20696;-89
2024/01/07 07:03:26;;;;;;;26.60;24.53;;;-0.90;87.00;;;;;;5032890;28;20180;-89
2024/01/07 07:05:51;;;;;;;28.53;26.43;;;-0.90;87.50;;;;;;5033953;28;20183;-88
2024/01/07 07:08:17;;;;;;;14.80;13.30;;;-1.00;87.60;;;;;;5033584;28;20607;-87
2024/01/07 07:10:43;;;;;;;13.20;12.10;;;-1.10;87.80;;;;;;5033041;28;20215;-86
2024/01/07 07:13:08;;;;;;;25.37;23.27;;;-1.10;88.10;;;;;;5034171;28;20594;-89
2024/01/07 07:15:34;;;;;;;24.77;22.97;;;-1.10;88.20;;;;;;5034273;28;20176;-88
2024/01/07 07:17:59;;;;;;;25.13;23.33;;;-1.10;88.30;;;;;;5032743;28;20176;-88
2024/01/07 07:20:25;;;;;;;26.53;24.30;;;-1.10;88.50;;;;;;5034465;28;20212;-86
2024/01/07 07:22:50;;;;;;;11.73;10.60;;;-1.10;88.40;;;;;;5032873;28;20199;-87
2024/01/07 07:25:16;;;;;;;12.13;10.20;;;-1.10;88.20;;;;;;5034435;28;20172;-88
2024/01/07 07:27:41;;;;;;;22.93;21.33;;;-1.10;88.00;;;;;;5032790;28;20181;-88
2024/01/07 07:30:07;;;;;;;23.87;22.17;;;-1.10;88.00;;;;;;5032447;28;25076;-88
2024/01/07 07:32:33;;;;;;;23.30;21.60;;;-1.20;88.00;;;;;;5032554;28;20284;-86
2024/01/07 07:34:59;;;;;;;13.03;11.70;;;-1.30;88.00;;;;;;5032487;28;20656;-89
2024/01/07 07:37:25;;;;;;;14.10;12.10;;;-1.40;88.10;;;;;;5032477;28;20294;-88
2024/01/07 07:39:50;;;;;;;13.17;11.70;;;-1.40;88.30;;;;;;5033538;28;20268;-87
2024/01/07 07:42:16;;;;;;;21.40;19.57;;;-1.40;88.50;;;;;;5032495;28;20187;-88
2024/01/07 07:44:42;;;;;;;20.23;18.53;;;-1.50;88.60;;;;;;5032462;28;20686;-88
2024/01/07 07:47:08;;;;;;;24.63;22.60;;;-1.40;88.70;;;;;;5032450;28;20181;-89
2024/01/07 07:49:35;;;;;;;14.30;12.43;;;-1.30;88.80;;;;;;5032657;28;20178;-87
2024/01/07 07:52:00;;;;;;;15.53;11.07;;;-1.30;88.90;;;;;;5033596;28;20200;-87
2024/01/07 07:54:26;;;;;;;13.60;11.93;;;-1.30;89.00;;;;;;5033605;28;20172;-87
2024/01/07 07:56:52;;;;;;;12.87;11.70;;;-1.20;89.00;;;;;;5033513;28;20178;-87
2024/01/07 07:59:17;;;;;;;13.47;12.27;;;-1.20;89.00;;;;;;5033590;28;20162;-88
2024/01/07 08:01:43;;;;;;;13.67;12.27;;;-1.20;89.00;;;;;;5032316;28;20665;-89
2024/01/07 08:04:10;;;;;;;11.80;10.73;;;-1.10;88.90;;;;;;5032187;28;20218;-86
2024/01/07 08:06:35;;;;;;;13.70;10.90;;;-1.10;88.80;;;;;;5032457;28;20252;-87
2024/01/07 08:09:01;;;;;;;19.97;18.33;;;-1.20;88.50;;;;;;5032554;28;20254;-88
2024/01/07 08:11:26;;;;;;;22.50;20.37;;;-1.20;88.40;;;;;;5031916;28;20198;-87
2024/01/07 08:13:52;;;;;;;19.97;18.37;;;-1.20;88.10;;;;;;5032335;28;20616;-87
2024/01/07 08:16:18;;;;;;;12.87;11.17;;;-1.30;87.90;;;;;;5032154;28;20202;-88
2024/01/07 08:18:44;;;;;;;14.37;11.00;;;-1.30;87.70;;;;;;5032186;28;20189;-87
2024/01/07 08:21:10;;;;;;;21.17;19.40;;;-1.40;87.60;;;;;;5032389;28;20259;-87
2024/01/07 08:23:35;;;;;;;21.80;19.83;;;-1.40;87.70;;;;;;5033321;28;20223;-88
2024/01/07 08:26:02;;;;;;;20.80;19.50;;;-1.50;87.70;;;;;;5032370;28;20591;-89
2024/01/07 08:28:27;;;;;;;19.77;18.47;;;-1.50;87.70;;;;;;5032445;28;20722;-88
2024/01/07 08:30:53;;;;;;;12.57;11.47;;;-1.60;87.70;;;;;;5032033;28;20208;-87
2024/01/07 08:33:19;;;;;;;13.43;11.60;;;-1.60;87.70;;;;;;5033687;28;20176;-87
2024/01/07 08:35:44;;;;;;;18.33;16.93;;;-1.60;87.80;;;;;;5033641;28;20211;-87
2024/01/07 08:38:10;;;;;;;18.90;17.20;;;-1.60;87.90;;;;;;5033707;28;20169;-88
2024/01/07 08:40:35;;;;;;;19.70;17.83;;;-1.60;87.90;;;;;;5032192;28;20201;-89
2024/01/07 08:43:02;;;;;;;13.70;11.33;;;-1.60;87.90;;;;;;5032277;28;20188;-88
2024/01/07 08:45:28;;;;;;;13.50;11.77;;;-1.60;87.80;;;;;;5032049;28;20230;-88
2024/01/07 08:47:53;;;;;;;;;;;-1.60;87.70;;;;;;5032566;28;20266;-87
2024/01/07 08:50:18;;;;;;;;;;;-1.60;87.60;;;;;;5049023;28;19927;-88
2024/01/07 08:52:45;;;;;;;;;;;-1.70;87.60;;;;;;5049122;28;19955;-89
2024/01/07 08:55:11;;;;;;;23.40;21.60;;;-1.80;87.50;;;;;;5032731;28;19905;-88
2024/01/07 08:57:38;;;;;;;13.53;12.30;;;-1.80;87.50;;;;;;5032809;28;20185;-88
2024/01/07 09:00:07;;;;;;;12.57;11.57;;;-1.90;87.40;;;;;;5033348;28;20199;-89
2024/01/07 09:02:33;;;;;;;21.63;20.03;;;-1.90;87.30;;;;;;5032132;28;20185;-88
2024/01/07 09:04:59;;;;;;;22.47;20.53;;;-1.90;87.40;;;;;;5032330;28;20225;-88
2024/01/07 09:07:24;;;;;;;23.33;21.47;;;-1.90;87.40;;;;;;5033386;28;20189;-89
2024/01/07 09:09:50;;;;;;;15.60;14.40;;;-2.00;87.30;;;;;;5031932;28;20224;-89
2024/01/07 09:12:15;;;;;;;13.63;12.43;;;-1.90;87.40;;;;;;5034283;28;20254;-88
2024/01/07 09:14:41;;;;;;;14.90;13.37;;;-1.90;87.50;;;;;;5035686;28;20188;-88
2024/01/07 09:17:07;;;;;;;24.73;22.60;;;-1.90;87.30;;;;;;5035189;28;20549;-89
2024/01/07 09:19:32;;;;;;;24.37;22.57;;;-1.90;87.20;;;;;;5036293;28;20338;-88
2024/01/07 09:21:58;;;;;;;24.77;22.90;;;-1.90;87.10;;;;;;5035049;28;20683;-87
2024/01/07 09:24:23;;;;;;;14.83;13.03;;;-1.90;87.20;;;;;;5035007;28;20340;-88
2024/01/07 09:26:49;;;;;;;14.57;12.43;;;-1.90;87.20;;;;;;5035418;28;20179;-86
2024/01/07 09:29:14;;;;;;;23.17;21.27;;;-1.90;87.20;;;;;;5036874;28;20676;-88
2024/01/07 09:31:40;;;;;;;23.40;21.57;;;-1.90;87.10;;;;;;5035565;28;20201;-88
2024/01/07 09:34:06;;;;;;;23.30;21.37;;;-1.90;87.20;;;;;;5035764;28;20683;-88
2024/01/07 09:36:32;;;;;;;20.83;19.20;;;-1.90;87.20;;;;;;5035596;28;20185;-87
2024/01/07 09:38:58;;;;;;;13.83;12.47;;;-1.80;87.10;;;;;;5036497;28;20181;-87
2024/01/07 09:41:24;;;;;;;15.70;12.73;;;-1.80;87.10;;;;;;5034895;28;20286;-87
2024/01/07 09:43:51;;;;;;;20.73;19.23;;;-1.90;87.00;;;;;;5035623;28;20211;-88
2024/01/07 09:46:17;;;;;;;21.93;20.27;;;-1.90;87.00;;;;;;5036304;28;20176;-89
2024/01/07 09:48:43;;;;;;;22.40;20.20;;;-1.90;86.90;;;;;;5035322;28;20178;-88
2024/01/07 09:51:10;;;;;;;11.87;10.97;;;-1.90;87.00;;;;;;5035361;28;20215;-89
2024/01/07 09:53:38;;;;;;;;;;;-1.80;87.00;;;;;;5037203;28;19905;-88
2024/01/07 09:56:16;;;;;;;;;;;-1.80;86.80;;;;;;5036407;28;20356;-88
2024/01/07 09:58:42;;;;;;;;;;;-1.80;86.80;;;;;;5035712;28;19905;-86
2024/01/07 10:01:08;;;;;;;;;;;-1.70;86.70;;;;;;5035657;28;19911;-87
2024/01/07 10:03:34;;;;;;;;;;;-1.70;86.60;;;;;;5052624;28;20296;-87
2024/01/07 10:05:59;;;;;;;;;;;-1.70;86.50;;;;;;5037325;28;19963;-88
2024/01/07 10:08:25;;;;;;;20.33;18.67;;;-1.60;86.40;;;;;;5052022;28;20185;-87
2024/01/07 10:10:50;;;;;;;21.87;20.07;;;-1.70;86.40;;;;;;5037239;28;20206;-88
2024/01/07 10:13:16;;;;;;;19.60;18.10;;;-1.60;86.40;;;;;;5036930;28;20525;-90
2024/01/07 10:15:41;;;;;;;14.30;13.00;;;-1.60;86.40;;;;;;5035872;28;20203;-86
2024/01/07 10:18:07;;;;;;;13.00;11.77;;;-1.60;86.40;;;;;;5035965;28;20267;-87
2024/01/07 10:20:34;;;;;;;20.73;18.80;;;-1.60;86.40;;;;;;5037066;28;20236;-89
2024/01/07 10:23:03;;;;;;;19.73;16.87;;;-1.60;86.50;;;;;;5035405;28;20175;-87
2024/01/07 10:25:32;;;;;;;18.73;17.07;;;-1.60;86.60;;;;;;5036671;28;20208;-89
2024/01/07 10:28:01;;;;;;;13.07;11.77;;;-1.60;86.50;;;;;;5035323;28;20179;-88
2024/01/07 10:30:28;;;;;;;12.07;10.97;;;-1.60;86.50;;;;;;5034913;28;20221;-88
2024/01/07 10:32:59;;;;;;;20.20;18.90;;;-1.60;86.40;;;;;;5036404;28;20180;-87
2024/01/07 10:35:31;;;;;;;20.73;18.50;;;-1.60;86.30;;;;;;5035007;28;20180;-87
2024/01/07 10:37:57;;;;;;;20.90;19.33;;;-1.50;86.20;;;;;;5035451;28;20257;-87
2024/01/07 10:40:24;;;;;;;14.20;13.07;;;-1.50;86.00;;;;;;5036451;28;20216;-87
2024/01/07 10:42:51;;;;;;;13.13;12.10;;;-1.50;85.90;;;;;;5035241;28;20243;-87
2024/01/07 10:45:17;;;;;;;13.70;12.47;;;-1.50;86.00;;;;;;5035294;28;20520;-88
2024/01/07 10:47:47;;;;;;;13.33;12.20;;;-1.50;85.90;;;;;;5035608;28;20270;-88
2024/01/07 10:50:14;;;;;;;13.03;11.90;;;-1.40;85.70;;;;;;5035172;28;20193;-87
2024/01/07 10:52:41;;;;;;;12.93;11.83;;;-1.40;85.60;;;;;;5035722;28;20757;-89
2024/01/07 10:55:09;;;;;;;13.53;12.43;;;-1.40;85.40;;;;;;5036312;28;20537;-87
2024/01/07 10:57:42;;;;;;;14.67;13.37;;;-1.40;85.30;;;;;;5036646;28;20295;-88
2024/01/07 11:00:09;;;;;;;14.70;13.60;;;-1.40;85.20;;;;;;5035550;28;20192;-88
2024/01/07 11:02:49;;;;;;;24.90;22.80;;;-1.40;85.10;;;;;;5033661;28;20173;-87
2024/01/07 11:06:03;;;;;;;22.83;21.23;;;-1.30;84.90;;;;;;5033460;28;20172;-85
2024/01/07 11:08:37;;;;;;;25.23;23.23;;;-1.30;84.80;;;;;;5001161;28;20208;-88
2024/01/07 11:11:17;;;;;;;26.03;23.97;;;-1.30;84.80;;;;;;5033317;28;20203;-89
2024/01/07 11:13:43;;;;;;;25.30;23.40;;;-1.30;84.60;;;;;;5033311;28;20547;-87
2024/01/07 11:16:12;;;;;;;26.43;24.33;;;-1.20;84.40;;;;;;5034064;28;20255;-89
2024/01/07 11:18:46;;;;;;;22.93;21.40;;;-1.20;84.10;;;;;;5032720;28;20188;-87
2024/01/07 11:21:21;;;;;;;27.00;24.87;;;-1.20;83.80;;;;;;5032799;28;20202;-88
2024/01/07 11:23:46;;;;;;;24.67;22.73;;;-1.20;83.70;;;;;;5032931;28;20170;-89
2024/01/07 11:26:12;;;;;;;24.60;22.80;;;-1.10;83.50;;;;;;5033078;28;20195;-87
2024/01/07 11:28:58;;;;;;;26.43;24.13;;;-1.10;83.10;;;;;;5033024;28;20209;-87
2024/01/07 11:31:38;;;;;;;25.60;23.50;;;-1.10;82.50;;;;;;5033890;28;20286;-87
2024/01/07 11:34:04;;;;;;;27.60;25.80;;;-1.10;82.30;;;;;;5032537;28;20181;-88
2024/01/07 11:36:29;;;;;;;27.73;25.70;;;-1.00;82.00;;;;;;5032588;28;20656;-89
2024/01/07 11:38:55;;;;;;;18.40;16.77;;;-1.00;81.70;;;;;;5033110;28;20185;-90
2024/01/07 11:41:21;;;;;;;17.70;16.40;;;-1.00;81.40;;;;;;5032587;28;20626;-88
2024/01/07 11:43:55;;;;;;;30.47;28.40;;;-1.00;81.20;;;;;;5032295;28;20180;-86
2024/01/07 11:46:23;;;;;;;27.17;25.17;;;-1.10;80.70;;;;;;5032490;28;20644;-90
2024/01/07 11:48:52;;;;;;;28.23;26.03;;;-1.10;80.10;;;;;;5032409;28;20181;-87
2024/01/07 11:51:18;;;;;;;26.57;24.63;;;-1.10;80.00;;;;;;5033862;28;20208;-88
2024/01/07 11:53:47;;;;;;;23.57;21.97;;;-0.90;79.80;;;;;;5032472;28;20268;-89
2024/01/07 11:56:13;;;;;;;27.57;24.97;;;-0.90;79.50;;;;;;5032331;28;20268;-87
2024/01/07 11:58:40;;;;;;;25.57;23.70;;;-1.00;79.30;;;;;;5032695;28;20207;-87
2024/01/07 12:01:06;;;;;;;24.70;23.10;;;-0.90;79.20;;;;;;5032663;28;20246;-87
2024/01/07 12:03:31;;;;;;;24.70;22.93;;;-1.00;78.80;;;;;;5032123;28;20196;-86
2024/01/07 12:05:57;;;;;;;18.27;16.97;;;-1.00;78.80;;;;;;5032048;28;20185;-89
2024/01/07 12:08:23;;;;;;;20.23;18.40;;;-1.00;78.80;;;;;;5033386;28;20215;-86
2024/01/07 12:10:49;;;;;;;24.50;22.80;;;-1.10;78.40;;;;;;5033898;28;20213;-87
2024/01/07 12:13:16;;;;;;;29.33;27.27;;;-1.10;78.10;;;;;;5033409;28;20175;-86
2024/01/07 12:15:41;;;;;;;27.53;25.63;;;-1.10;77.90;;;;;;5033417;28;20177;-91
2024/01/07 12:18:07;;;;;;;25.90;24.00;;;-1.10;78.00;;;;;;5032046;28;20183;-87
2024/01/07 12:20:32;;;;;;;19.63;18.10;;;-1.10;78.10;;;;;;5032263;28;20221;-86
2024/01/07 12:23:06;;;;;;;17.63;16.43;;;-1.00;78.10;;;;;;5032218;28;20265;-87
2024/01/07 12:25:32;;;;;;;27.10;25.07;;;-0.90;78.50;;;;;;5033603;28;20181;-89
2024/01/07 12:27:58;;;;;;;29.90;27.67;;;-0.90;78.60;;;;;;5033660;28;20196;-87
2024/01/07 12:30:27;;;;;;;26.77;24.77;;;-0.90;78.60;;;;;;5032259;28;20203;-86
2024/01/07 12:32:53;;;;;;;21.13;19.23;;;-1.00;78.30;;;;;;5033988;28;20652;-87
2024/01/07 12:35:19;;;;;;;19.83;18.37;;;-1.00;78.00;;;;;;5032381;28;20238;-91
2024/01/07 12:37:44;;;;;;;26.30;24.27;;;-1.00;76.70;;;;;;5034060;28;20644;-86
2024/01/07 12:40:11;;;;;;;27.67;25.73;;;-1.10;76.20;;;;;;5032590;28;20207;-87
2024/01/07 12:42:44;;;;;;;30.13;28.07;;;-1.00;75.10;;;;;;5032901;28;20235;-87
2024/01/07 12:45:13;;;;;;;26.40;24.43;;;-0.90;74.60;;;;;;5035189;28;20649;-86
2024/01/07 12:47:39;;;;;;;22.80;20.97;;;-0.90;74.60;;;;;;5036126;28;20591;-86
2024/01/07 12:50:05;;;;;;;22.73;21.00;;;-0.90;73.50;;;;;;5036783;28;20210;-87
2024/01/07 12:52:30;;;;;;;30.73;28.73;;;-0.90;72.50;;;;;;5037458;28;20250;-87